ENTK1: Smokey Hill River, Enterprise, KS

Data processed at Fri Jun 05 2020 23:55


All information presented herein is the property of the government of the United States of America and may be revised or deleted at any time without prior notice.
Dissemination of this information without the expressed written consent of the Public Affairs Office, Tulsa District U.S. Army Corps of Engineers is strictly prohibited.
These data are gathered electronically and, as presented, have not undergone any form of quality control. These data are not guaranteed to be valid or correct.
Go to home page.
Go to station list.
Go to home page.


Previous Day
Next Day
Current Day


    
SHEF ID:       ENTK1     SMOKY HILL R AT ENTERPRISE, KS
STATION TYPE:  

               PRECIP     STAGE  RIV-FLOW  BAT-LOAD
                   in        ft       cfs      volt
              Ccp-Rev   Ccp-Rev   Ccp-Rev   Ccp-Rev
(US/Central)
06/05 00:00      0.00     11.27      2337     12.83
06/05 01:00      0.00     11.24      2319     12.77
06/05 02:00      0.00     11.23      2312     12.77
06/05 03:00      0.00     11.19      2288     12.77
06/05 04:00      0.00     11.18      2282     12.71
06/05 05:00      0.00     11.14      2258     12.71
06/05 06:00      0.00     11.13      2252     12.65
06/05 07:00      0.00     11.09      2228     12.65
06/05 08:00      0.00     11.06      2210     12.65
06/05 09:00      0.00     11.03      2192     12.71
06/05 10:00      0.00     10.99      2168     12.83
06/05 11:00      0.00     10.96      2150     13.00
06/05 12:00      0.00     10.94      2138     13.12
06/05 13:00      0.00     10.92      2126     13.24
06/05 14:00      0.00     10.89      2108     13.07
06/05 15:00      0.00     10.89      2108     13.12
06/05 16:00      0.00     10.86      2091     13.18
06/05 17:00      0.00     10.82      2067     13.18
06/05 18:00      0.00     10.81      2061     13.12
06/05 19:00      0.00     10.80      2055     13.00
06/05 20:00      0.00     10.76      2032     12.95
06/05 21:00      0.00     10.74      2020     12.89
06/05 22:00      0.00     10.73      2014     12.83
06/05 23:00      ----      ----      ----      ----